Latest Weather Observations for South Channel Island

IDV60801

Issued at 7:42 am EDT Friday 21 January 2022 (issued every 10 minutes, with the page automatically refreshed every 10 minutes)

About weather observations | Map of weather stations | Latest weather observations for VIC | Other Formats
Station Details ID: 086344 Name: SOUTH CHANNEL ISLAND Lat: -38.31 Lon: 144.80 Height: 9.0 m
Data from the previous 72 hours. | See also: Recent months at South Channel Island
Date/Time
EDT
Temp
°C
App
Temp
°C
Dew
Point
°C
Rel
Hum
%
Delta-T
°C
Wind Press
QNH
hPa
Press
MSL
hPa
Rain since
9am
mm
Dir  Spd
km/h
Gust
km/h
Spd
kts
Gust
kts
21/07:30am - - - - - NE 20 24 11 13 - - -
21/07:00am - - - - - ENE 19 20 10 11 - - -
21/06:30am - - - - - ENE 19 22 10 12 - - -
21/06:00am - - - - - NE 19 20 10 11 - - -
21/05:30am - - - - - NE 22 28 12 15 - - -
21/05:00am - - - - - ENE 28 32 15 17 - - -
21/04:30am - - - - - ENE 33 37 18 20 - - -
21/04:00am - - - - - ENE 37 41 20 22 - - -
21/03:30am - - - - - E 39 44 21 24 - - -
21/03:00am - - - - - ENE 41 46 22 25 - - -
21/02:30am - - - - - E 43 48 23 26 - - -
21/02:00am - - - - - ENE 46 54 25 29 - - -
21/01:30am - - - - - ENE 52 61 28 33 - - -
21/01:00am - - - - - E 57 69 31 37 - - -
21/12:30am - - - - - E 57 70 31 38 - - -
21/12:00am - - - - - E 57 70 31 38 - - -
 
Date/Time
EDT
Temp
°C
App
Temp
°C
Dew
Point
°C
Rel
Hum
%
Delta-T
°C
Wind Press
QNH
hPa
Press
MSL
hPa
Rain since
9am
mm
Dir  Spd
km/h
Gust
km/h
Spd
kts
Gust
kts
20/11:30pm - - - - - E 61 70 33 38 - - -
20/11:00pm - - - - - E 57 69 31 37 - - -
20/10:30pm - - - - - E 50 61 27 33 - - -
20/10:00pm - - - - - E 48 56 26 30 - - -
20/09:30pm - - - - - E 46 54 25 29 - - -
20/09:00pm - - - - - E 48 56 26 30 - - -
20/08:30pm - - - - - ESE 33 41 18 22 - - -
20/08:00pm - - - - - ESE 32 39 17 21 - - -
20/07:30pm - - - - - ESE 33 39 18 21 - - -
20/07:00pm - - - - - SE 32 37 17 20 - - -
20/06:30pm - - - - - ESE 32 37 17 20 - - -
20/06:00pm - - - - - SE 30 35 16 19 - - -
20/05:30pm - - - - - ESE 32 35 17 19 - - -
20/05:00pm - - - - - E 32 35 17 19 - - -
20/04:30pm - - - - - E 32 37 17 20 - - -
20/04:00pm - - - - - ESE 33 43 18 23 - - -
20/03:30pm - - - - - ESE 28 33 15 18 - - -
20/03:00pm - - - - - E 32 35 17 19 - - -
20/02:30pm - - - - - E 32 35 17 19 - - -
20/02:00pm - - - - - ENE 32 37 17 20 - - -
20/01:30pm - - - - - ENE 32 37 17 20 - - -
20/01:00pm - - - - - ENE 35 39 19 21 - - -
20/12:30pm - - - - - ENE 35 41 19 22 - - -
20/12:00pm - - - - - ENE 39 44 21 24 - - -
20/11:30am - - - - - E 39 44 21 24 - - -
20/11:00am - - - - - E 41 50 22 27 - - -
20/10:30am - - - - - E 41 50 22 27 - - -
20/10:00am - - - - - ENE 44 52 24 28 - - -
20/09:30am - - - - - E 44 54 24 29 - - -
20/09:00am - - - - - E 44 54 24 29 - - -
20/08:30am - - - - - E 43 54 23 29 - - -
20/08:00am - - - - - E 37 48 20 26 - - -
20/07:30am - - - - - E 43 50 23 27 - - -
20/07:00am - - - - - E 43 50 23 27 - - -
20/06:30am - - - - - E 41 52 22 28 - - -
20/06:00am - - - - - E 41 48 22 26 - - -
20/05:30am - - - - - E 43 52 23 28 - - -
20/05:00am - - - - - ESE 46 54 25 29 - - -
20/04:30am - - - - - E 46 57 25 31 - - -
20/04:00am - - - - - E 44 52 24 28 - - -
20/03:30am - - - - - E 46 57 25 31 - - -
20/03:00am - - - - - E 48 57 26 31 - - -
20/02:30am - - - - - E 52 59 28 32 - - -
20/02:00am - - - - - E 52 61 28 33 - - -
20/01:30am - - - - - E 54 63 29 34 - - -
20/01:00am - - - - - E 56 69 30 37 - - -
20/12:30am - - - - - E 48 59 26 32 - - -
20/12:00am - - - - - E 44 54 24 29 - - -
 
Date/Time
EDT
Temp
°C
App
Temp
°C
Dew
Point
°C
Rel
Hum
%
Delta-T
°C
Wind Press
QNH
hPa
Press
MSL
hPa
Rain since
9am
mm
Dir  Spd
km/h
Gust
km/h
Spd
kts
Gust
kts
19/11:30pm - - - - - E 46 56 25 30 - - -
19/11:02pm - - - - - E 43 61 23 33 - - -
19/11:00pm - - - - - E 41 52 22 28 - - -
19/10:30pm - - - - - E 43 52 23 28 - - -
19/10:00pm - - - - - E 44 52 24 28 - - -
19/09:30pm - - - - - E 43 52 23 28 - - -
19/09:00pm - - - - - E 43 50 23 27 - - -
19/08:30pm - - - - - E 44 52 24 28 - - -
19/08:00pm - - - - - E 43 52 23 28 - - -
19/07:30pm - - - - - E 46 56 25 30 - - -
19/07:00pm - - - - - E 48 57 26 31 - - -
19/06:30pm - - - - - E 44 54 24 29 - - -
19/06:00pm - - - - - E 50 59 27 32 - - -
19/05:30pm - - - - - ESE 48 57 26 31 - - -
19/05:00pm - - - - - SE 50 59 27 32 - - -
19/04:31pm - - - - - SE 56 74 30 40 - - -
19/04:30pm - - - - - SE 57 74 31 40 - - -
19/04:22pm - - - - - SE 56 74 30 40 - - -
19/04:00pm - - - - - SE 56 67 30 36 - - -
19/03:30pm - - - - - SE 50 59 27 32 - - -
19/03:00pm - - - - - E 44 56 24 30 - - -
19/02:30pm - - - - - ESE 44 56 24 30 - - -
19/02:00pm - - - - - ESE 48 59 26 32 - - -
19/01:30pm - - - - - ESE 50 67 27 36 - - -
19/01:24pm - - - - - ESE 48 67 26 36 - - -
19/01:00pm - - - - - E 50 59 27 32 - - -
19/12:30pm - - - - - ESE 46 57 25 31 - - -
19/12:00pm - - - - - E 43 50 23 27 - - -
19/11:30am - - - - - ESE 50 59 27 32 - - -
19/11:00am - - - - - ESE 52 61 28 33 - - -
19/10:30am - - - - - ESE 50 61 27 33 - - -
19/10:00am - - - - - ESE 50 57 27 31 - - -
19/09:30am - - - - - ESE 44 54 24 29 - - -
19/09:00am - - - - - ESE 46 54 25 29 - - -
19/08:30am - - - - - ESE 44 54 24 29 - - -
19/08:00am - - - - - ESE 37 46 20 25 - - -
19/07:30am - - - - - ESE 43 50 23 27 - - -
19/07:00am - - - - - ESE 44 52 24 28 - - -
19/06:30am - - - - - ESE 43 52 23 28 - - -
19/06:00am - - - - - ESE 39 48 21 26 - - -
19/05:30am - - - - - ESE 39 50 21 27 - - -
19/05:00am - - - - - ESE 35 46 19 25 - - -
19/04:30am - - - - - ESE 33 39 18 21 - - -
19/04:00am - - - - - SE 30 37 16 20 - - -
19/03:30am - - - - - SE 22 28 12 15 - - -
19/03:00am - - - - - SE 24 28 13 15 - - -
19/02:30am - - - - - SE 24 30 13 16 - - -
19/02:00am - - - - - SE 24 30 13 16 - - -
19/01:30am - - - - - SE 24 30 13 16 - - -
19/01:00am - - - - - SE 22 28 12 15 - - -
19/12:30am - - - - - SE 22 26 12 14 - - -
19/12:00am - - - - - SSE 26 30 14 16 - - -
 
Date/Time
EDT
Temp
°C
App
Temp
°C
Dew
Point
°C
Rel
Hum
%
Delta-T
°C
Wind Press
QNH
hPa
Press
MSL
hPa
Rain since
9am
mm
Dir  Spd
km/h
Gust
km/h
Spd
kts
Gust
kts
18/11:30pm - - - - - SSE 28 33 15 18 - - -
18/11:00pm - - - - - SSE 28 33 15 18 - - -
18/10:30pm - - - - - SSE 30 33 16 18 - - -
18/10:00pm - - - - - S 28 33 15 18 - - -
18/09:30pm - - - - - S 28 32 15 17 - - -
18/09:00pm - - - - - SSE 30 37 16 20 - - -
18/08:30pm - - - - - SSE 30 41 16 22 - - -
18/08:00pm - - - - - SSE 35 41 19 22 - - -
18/07:30pm - - - - - SSE 35 41 19 22 - - -
18/07:00pm - - - - - SSE 35 44 19 24 - - -
18/06:30pm - - - - - S 33 43 18 23 - - -
18/06:00pm - - - - - SSE 33 39 18 21 - - -
18/05:30pm - - - - - S 37 48 20 26 - - -
18/05:00pm - - - - - S 35 41 19 22 - - -
18/04:30pm - - - - - S 35 41 19 22 - - -
18/04:00pm - - - - - SSE 33 41 18 22 - - -
18/03:30pm - - - - - S 33 41 18 22 - - -
18/03:00pm - - - - - S 32 41 17 22 - - -
18/02:30pm - - - - - S 30 35 16 19 - - -
18/02:00pm - - - - - S 32 39 17 21 - - -
18/01:30pm - - - - - S 35 43 19 23 - - -
18/01:00pm - - - - - S 33 39 18 21 - - -
18/12:30pm - - - - - S 28 33 15 18 - - -
18/12:00pm - - - - - SSE 28 32 15 17 - - -
18/11:30am - - - - - S 26 32 14 17 - - -
18/11:00am - - - - - S 32 41 17 22 - - -
18/10:30am - - - - - S 26 33 14 18 - - -
18/10:00am - - - - - S 22 28 12 15 - - -
18/09:30am - - - - - S 24 32 13 17 - - -
18/09:00am - - - - - SSE 24 30 13 16 - - -
18/08:30am - - - - - S 22 30 12 16 - - -
18/08:00am - - - - - SSE 19 26 10 14 - - -

Other formats

Comma delimited format used in spreadsheet applications
http://www.bom.gov.au/fwo/IDV60801/IDV60801.94853.axf

JavaScript Object Notation format (JSON) in row-major order
http://www.bom.gov.au/fwo/IDV60801/IDV60801.94853.json

Data quality

Most of these data are generated automatically and are frequently updated. Quality checks on data are not normally performed. It is possible for incorrect values to appear. Refer to information at About Latest Weather Observations and please check the disclaimer before using these data.